createdAt,value
2023-02-02T00:00:23.524Z,6.75
2023-02-02T00:02:50.247Z,8.52
2023-02-02T00:05:16.852Z,6.63
2023-02-02T00:07:43.498Z,6.35
2023-02-02T00:10:10.774Z,7.03
2023-02-02T00:12:37.370Z,1.27
2023-02-02T00:15:04.174Z,11.70
2023-02-02T00:17:30.811Z,3.50
2023-02-02T00:19:57.642Z,6.95
2023-02-02T00:22:24.308Z,5.63
2023-02-02T00:24:51.027Z,6.18
2023-02-02T00:27:17.669Z,15.45
2023-02-02T00:29:44.805Z,1.13
2023-02-02T00:32:11.620Z,5.53
2023-02-02T00:34:38.235Z,6.45
2023-02-02T00:37:05.397Z,9.13
2023-02-02T00:39:32.025Z,10.68
2023-02-02T00:41:58.755Z,5.80
2023-02-02T00:44:54.586Z,11.38
2023-02-02T00:47:22.437Z,11.05
2023-02-02T00:49:49.009Z,8.77
2023-02-02T00:52:15.638Z,7.80
2023-02-02T00:54:42.311Z,9.57
2023-02-02T00:57:13.831Z,6.10
2023-02-02T00:59:41.182Z,10.52
2023-02-02T01:02:10.254Z,3.95
2023-02-02T01:04:37.120Z,14.27
2023-02-02T01:07:03.800Z,8.02
2023-02-02T01:09:30.433Z,12.95
2023-02-02T01:11:57.372Z,9.63
2023-02-02T01:14:25.348Z,11.82
2023-02-02T01:16:52.074Z,12.50
2023-02-02T01:19:18.655Z,6.43
2023-02-02T01:21:45.657Z,11.20
2023-02-02T01:24:12.278Z,18.35
2023-02-02T01:26:39.174Z,11.40
2023-02-02T01:29:05.892Z,17.05
2023-02-02T01:31:32.497Z,12.93
2023-02-02T01:33:59.169Z,10.35
2023-02-02T01:36:25.814Z,12.55
2023-02-02T01:38:52.547Z,10.93
2023-02-02T01:41:21.816Z,14.50
2023-02-02T01:43:49.242Z,12.20
2023-02-02T01:46:21.974Z,14.23
2023-02-02T01:49:05.603Z,8.10
2023-02-02T01:51:41.451Z,10.70
2023-02-02T01:54:11.049Z,8.90
2023-02-02T01:56:41.932Z,11.32
2023-02-02T01:59:09.733Z,13.18
2023-02-02T02:01:36.400Z,17.92
2023-02-02T02:04:03.223Z,10.30
2023-02-02T02:06:31.604Z,18.50
2023-02-02T02:09:05.847Z,11.43
2023-02-02T02:11:34.080Z,13.23
2023-02-02T02:14:22.470Z,12.25
2023-02-02T02:16:49.241Z,9.70
2023-02-02T02:19:35.523Z,10.45
2023-02-02T02:22:31.129Z,15.48
2023-02-02T02:25:54.196Z,18.25
2023-02-02T02:28:37.952Z,18.65
2023-02-02T02:31:04.625Z,17.90
2023-02-02T02:33:41.326Z,13.13
2023-02-02T02:36:23.662Z,16.10
2023-02-02T02:39:12.823Z,15.82
2023-02-02T02:41:45.468Z,20.02
2023-02-02T02:44:14.989Z,22.85
2023-02-02T02:46:42.087Z,17.17
2023-02-02T02:49:10.417Z,27.95
2023-02-02T02:51:50.176Z,16.80
2023-02-02T02:54:33.634Z,14.80
2023-02-02T02:57:30.412Z,6.57
2023-02-02T03:00:16.031Z,19.02
2023-02-02T03:02:58.701Z,17.65
2023-02-02T03:05:44.335Z,22.38
2023-02-02T03:08:18.353Z,16.75
2023-02-02T03:10:46.353Z,23.98
2023-02-02T03:13:14.436Z,24.15
2023-02-02T03:15:42.406Z,29.73
2023-02-02T03:18:09.110Z,25.73
2023-02-02T03:20:36.109Z,15.32
2023-02-02T03:23:02.777Z,13.57
2023-02-02T03:25:29.474Z,17.58
2023-02-02T03:27:56.104Z,20.92
2023-02-02T03:30:22.998Z,19.05
2023-02-02T03:32:50.090Z,25.23
2023-02-02T03:35:16.773Z,18.60
2023-02-02T03:37:43.596Z,29.67
2023-02-02T03:40:10.824Z,22.83
2023-02-02T03:42:37.531Z,30.45
2023-02-02T03:45:04.601Z,20.50
2023-02-02T03:47:31.295Z,21.88
2023-02-02T03:49:58.573Z,24.33
2023-02-02T03:52:25.621Z,17.45
2023-02-02T03:54:52.459Z,14.20
2023-02-02T03:57:19.305Z,12.20
2023-02-02T03:59:46.126Z,24.77
2023-02-02T04:02:12.743Z,18.35
2023-02-02T04:04:39.382Z,19.58
2023-02-02T04:07:06.075Z,20.13
2023-02-02T04:09:32.677Z,15.65
2023-02-02T04:11:59.280Z,13.38
2023-02-02T04:14:26.031Z,10.85
2023-02-02T04:16:52.655Z,13.23
2023-02-02T04:19:19.319Z,11.88
2023-02-02T04:21:46.083Z,21.20
2023-02-02T04:24:13.867Z,11.02
2023-02-02T04:26:41.040Z,15.52
2023-02-02T04:29:07.834Z,14.35
2023-02-02T04:31:34.594Z,19.38
2023-02-02T04:34:01.423Z,16.40
2023-02-02T04:36:28.278Z,7.85
2023-02-02T04:38:55.427Z,16.15
2023-02-02T04:41:22.831Z,16.33
2023-02-02T04:43:49.447Z,24.77
2023-02-02T04:46:16.231Z,20.40
2023-02-02T04:48:42.944Z,11.45
2023-02-02T04:51:12.334Z,13.65
2023-02-02T04:53:39.448Z,11.13
2023-02-02T04:56:14.316Z,16.02
2023-02-02T04:58:41.274Z,9.20
2023-02-02T05:01:20.869Z,14.57
2023-02-02T05:03:47.954Z,15.63
2023-02-02T05:06:15.963Z,12.20
2023-02-02T05:08:43.478Z,10.48
2023-02-02T05:11:11.345Z,12.55
2023-02-02T05:13:38.112Z,12.30
2023-02-02T05:16:05.063Z,15.80
2023-02-02T05:18:31.838Z,10.50
2023-02-02T05:21:02.275Z,20.15
2023-02-02T05:23:29.401Z,17.70
2023-02-02T05:25:56.381Z,19.08
2023-02-02T05:28:23.665Z,16.63
2023-02-02T05:30:50.355Z,18.75
2023-02-02T05:33:19.557Z,18.25
2023-02-02T05:35:47.232Z,19.85
2023-02-02T05:38:13.996Z,21.02
2023-02-02T05:40:40.682Z,13.55
2023-02-02T05:43:07.400Z,23.33
2023-02-02T05:45:34.130Z,20.50
2023-02-02T05:48:00.810Z,34.13
2023-02-02T05:50:27.411Z,21.30
2023-02-02T05:53:02.125Z,26.35
2023-02-02T05:55:28.723Z,21.40
2023-02-02T05:57:55.689Z,27.45
2023-02-02T06:00:22.767Z,31.25
2023-02-02T06:02:49.452Z,5.50
2023-02-02T06:05:16.121Z,33.80
2023-02-02T06:07:42.748Z,22.40
2023-02-02T06:10:09.675Z,33.88
2023-02-02T06:12:36.348Z,32.47
2023-02-02T06:15:03.070Z,27.70
2023-02-02T06:17:29.713Z,27.25
2023-02-02T06:19:56.335Z,29.45
2023-02-02T06:22:23.033Z,26.85
2023-02-02T06:24:49.679Z,14.75
2023-02-02T06:27:16.440Z,51.90
2023-02-02T06:29:43.089Z,3.95
2023-02-02T06:32:09.842Z,18.95
2023-02-02T06:34:36.550Z,15.00
2023-02-02T06:37:03.239Z,27.35
2023-02-02T06:39:29.931Z,30.33
2023-02-02T06:41:57.292Z,16.95
2023-02-02T06:44:24.075Z,23.88
2023-02-02T06:46:50.681Z,24.85
2023-02-02T06:49:17.340Z,24.92
2023-02-02T06:51:44.175Z,22.73
2023-02-02T06:54:10.915Z,25.92
2023-02-02T06:56:37.580Z,12.10
2023-02-02T06:59:04.210Z,19.85
2023-02-02T07:01:30.933Z,15.35
2023-02-02T07:03:57.610Z,26.17
2023-02-02T07:06:26.501Z,18.85
2023-02-02T07:08:57.650Z,17.38
2023-02-02T07:11:29.096Z,27.88
2023-02-02T07:13:55.841Z,26.60
2023-02-02T07:16:22.576Z,29.48
2023-02-02T07:18:49.448Z,34.50
2023-02-02T07:21:19.473Z,17.88
2023-02-02T07:23:46.701Z,28.23
2023-02-02T07:26:14.205Z,28.35
2023-02-02T07:28:41.211Z,30.35
2023-02-02T07:31:19.441Z,24.13
2023-02-02T07:33:47.296Z,15.07
2023-02-02T07:36:18.878Z,24.45
2023-02-02T07:38:47.453Z,31.13
2023-02-02T07:41:15.499Z,27.42
2023-02-02T07:43:42.248Z,40.50
2023-02-02T07:46:10.394Z,31.70
2023-02-02T07:48:37.411Z,6.78
2023-02-02T07:51:06.294Z,28.73
2023-02-02T07:53:34.032Z,46.72
2023-02-02T07:56:12.228Z,37.65
2023-02-02T07:58:41.449Z,24.10
2023-02-02T08:01:09.764Z,32.50
2023-02-02T08:03:37.100Z,31.40
2023-02-02T08:06:12.851Z,39.88
2023-02-02T08:08:39.475Z,22.48
2023-02-02T08:11:08.549Z,18.92
2023-02-02T08:13:35.950Z,24.90
2023-02-02T08:16:02.780Z,25.27
2023-02-02T08:18:29.414Z,16.08
2023-02-02T08:20:58.980Z,27.70
2023-02-02T08:23:25.620Z,15.68
2023-02-02T08:25:53.214Z,19.60
2023-02-02T08:28:20.070Z,16.83
2023-02-02T08:30:46.747Z,26.98
2023-02-02T08:33:13.824Z,14.38
2023-02-02T08:35:43.812Z,36.28
2023-02-02T08:38:10.486Z,28.25
2023-02-02T08:40:37.179Z,16.92
2023-02-02T08:43:04.202Z,20.20
2023-02-02T08:46:04.170Z,26.05
2023-02-02T08:48:19.793Z,21.13
2023-02-02T08:50:52.938Z,24.63
2023-02-02T08:53:19.609Z,22.67
2023-02-02T08:55:46.228Z,23.88
2023-02-02T08:58:13.624Z,25.80
2023-02-02T09:00:41.082Z,23.88
2023-02-02T09:03:07.933Z,20.67
2023-02-02T09:05:35.807Z,21.77
2023-02-02T09:08:02.484Z,20.40
2023-02-02T09:10:32.080Z,16.35
2023-02-02T09:12:58.751Z,26.17
2023-02-02T09:15:25.604Z,15.15
2023-02-02T09:17:52.558Z,19.13
2023-02-02T09:20:20.612Z,18.80
2023-02-02T09:22:48.570Z,21.50
2023-02-02T09:25:15.235Z,18.63
2023-02-02T09:27:41.998Z,22.30
2023-02-02T09:30:11.734Z,23.55
2023-02-02T09:32:38.535Z,17.35
2023-02-02T09:35:05.561Z,20.73
2023-02-02T09:37:34.075Z,14.57
2023-02-02T09:40:00.938Z,13.80
2023-02-02T09:42:39.392Z,16.60
2023-02-02T09:45:32.436Z,17.48
2023-02-02T09:48:12.296Z,14.52
2023-02-02T09:50:47.869Z,13.15
2023-02-02T09:53:27.252Z,19.05
2023-02-02T09:55:57.556Z,14.57
2023-02-02T09:58:24.196Z,12.98
2023-02-02T10:00:53.253Z,14.90
2023-02-02T10:03:58.342Z,11.30
2023-02-02T10:06:34.945Z,16.80
2023-02-02T10:09:10.626Z,11.95
2023-02-02T10:11:43.576Z,11.15
2023-02-02T10:14:24.726Z,21.60
2023-02-02T10:16:54.177Z,13.40
2023-02-02T10:19:21.215Z,18.77
2023-02-02T10:22:23.427Z,14.20
2023-02-02T10:24:50.249Z,6.05
2023-02-02T10:27:22.244Z,17.85
2023-02-02T10:30:01.478Z,10.55
2023-02-02T10:32:41.218Z,5.90
2023-02-02T10:35:45.561Z,18.27
2023-02-02T10:38:30.710Z,17.58
2023-02-02T10:41:20.951Z,7.90
2023-02-02T10:43:59.851Z,11.48
2023-02-02T10:46:34.355Z,15.98
2023-02-02T10:49:29.114Z,7.88
2023-02-02T10:52:12.009Z,16.42
2023-02-02T10:54:56.489Z,6.82
2023-02-02T10:58:01.754Z,20.83
2023-02-02T11:00:35.383Z,20.25
2023-02-02T11:03:04.838Z,15.05
2023-02-02T11:05:50.318Z,14.70
2023-02-02T11:08:19.807Z,18.52
2023-02-02T11:10:48.785Z,24.67
2023-02-02T11:13:37.353Z,18.25
2023-02-02T11:16:16.190Z,21.38
2023-02-02T11:18:44.450Z,19.73
2023-02-02T11:21:30.018Z,35.72
2023-02-02T11:24:00.675Z,19.67
2023-02-02T11:26:40.589Z,31.02
2023-02-02T11:29:14.455Z,16.80
2023-02-02T11:31:41.211Z,33.35
2023-02-02T11:34:19.474Z,17.05
2023-02-02T11:37:22.650Z,5.72
2023-02-02T11:39:49.573Z,22.50
2023-02-02T11:42:19.871Z,26.75
2023-02-02T11:44:49.396Z,16.35
2023-02-02T11:47:22.630Z,25.50
2023-02-02T11:49:51.604Z,22.75
2023-02-02T11:52:21.864Z,25.17
2023-02-02T11:54:52.752Z,26.50
2023-02-02T11:57:22.082Z,29.65
2023-02-02T12:00:12.078Z,26.02
2023-02-02T12:02:45.951Z,30.80
2023-02-02T12:05:15.661Z,23.52
2023-02-02T12:07:45.704Z,24.23
2023-02-02T12:10:30.661Z,33.75
2023-02-02T12:13:25.082Z,15.80
2023-02-02T12:16:31.289Z,14.57
2023-02-02T12:19:06.423Z,16.00
2023-02-02T12:22:05.669Z,13.40
2023-02-02T12:24:34.455Z,21.15
2023-02-02T12:27:21.574Z,13.13
2023-02-02T12:30:19.407Z,31.27
2023-02-02T12:33:17.836Z,24.60
2023-02-02T12:36:08.966Z,33.30
2023-02-02T12:39:00.435Z,24.63
2023-02-02T12:41:34.665Z,25.17
2023-02-02T12:44:30.442Z,24.95
2023-02-02T12:47:34.789Z,25.27
2023-02-02T12:50:10.780Z,26.45
2023-02-02T12:53:10.223Z,26.95
2023-02-02T12:56:28.320Z,19.00
2023-02-02T12:59:22.928Z,23.77
2023-02-02T13:02:03.746Z,18.50
2023-02-02T13:05:26.240Z,24.55
2023-02-02T13:07:57.726Z,24.30
2023-02-02T13:10:24.875Z,24.33
2023-02-02T13:13:01.349Z,32.45
2023-02-02T13:15:40.340Z,26.40
2023-02-02T13:18:41.405Z,15.40
2023-02-02T13:21:15.255Z,26.35
2023-02-02T13:23:51.196Z,18.38
2023-02-02T13:26:24.802Z,31.00
2023-02-02T13:29:23.768Z,24.88
2023-02-02T13:32:01.572Z,20.58
2023-02-02T13:34:53.050Z,9.02
2023-02-02T13:37:32.582Z,24.58
2023-02-02T13:40:34.409Z,25.30
2023-02-02T13:43:21.646Z,23.23
2023-02-02T13:46:05.343Z,26.75
2023-02-02T13:48:34.897Z,23.83
2023-02-02T13:51:32.296Z,27.80
2023-02-02T13:54:26.805Z,18.08
2023-02-02T13:57:17.669Z,23.80
2023-02-02T13:59:55.340Z,24.83
2023-02-02T14:02:51.574Z,20.13
2023-02-02T14:05:28.383Z,19.05
2023-02-02T14:08:06.679Z,36.67
2023-02-02T14:10:35.623Z,17.80
2023-02-02T14:13:08.302Z,30.35
2023-02-02T14:15:43.867Z,15.32
2023-02-02T14:18:16.822Z,27.48
2023-02-02T14:20:50.746Z,32.67
2023-02-02T14:23:52.312Z,22.98
2023-02-02T14:26:21.788Z,35.40
2023-02-02T14:28:50.742Z,23.83
2023-02-02T14:31:29.750Z,22.45
2023-02-02T14:34:36.339Z,32.90
2023-02-02T14:37:06.009Z,29.50
2023-02-02T14:39:57.394Z,30.23
2023-02-02T14:42:57.851Z,31.63
2023-02-02T14:45:33.056Z,31.58
2023-02-02T14:48:02.909Z,27.17
2023-02-02T14:50:38.678Z,16.52
2023-02-02T14:53:18.121Z,23.45
2023-02-02T14:56:04.400Z,30.40
2023-02-02T14:58:48.179Z,22.83
2023-02-02T15:01:23.993Z,21.67
2023-02-02T15:03:57.184Z,25.30
2023-02-02T15:06:34.315Z,18.33
2023-02-02T15:09:19.791Z,17.67
2023-02-02T15:15:05.995Z,26.88
2023-02-02T15:17:41.955Z,22.23
2023-02-02T15:20:23.035Z,25.25
2023-02-02T15:23:04.920Z,25.38
2023-02-02T15:25:41.436Z,27.35
2023-02-02T15:28:21.822Z,24.48
2023-02-02T15:30:53.447Z,22.95
2023-02-02T15:33:30.842Z,16.63
2023-02-02T15:36:00.117Z,25.40
2023-02-02T15:38:34.113Z,11.95
2023-02-02T15:41:06.225Z,22.98
2023-02-02T15:43:35.338Z,26.92
2023-02-02T15:46:06.921Z,23.27
2023-02-02T15:48:34.801Z,30.40
2023-02-02T15:51:05.129Z,21.75
2023-02-02T15:53:40.968Z,23.52
2023-02-02T15:56:22.848Z,26.67
2023-02-02T15:58:53.000Z,33.65
2023-02-02T16:01:21.739Z,23.80
2023-02-02T16:03:54.700Z,25.00
2023-02-02T16:06:21.844Z,29.10
2023-02-02T16:08:50.243Z,28.52
2023-02-02T16:11:19.889Z,25.77
2023-02-02T16:14:04.398Z,28.55
2023-02-02T16:16:36.992Z,21.40
2023-02-02T16:19:09.037Z,17.70
2023-02-02T16:21:40.794Z,24.70
2023-02-02T16:24:12.556Z,21.98
2023-02-02T16:26:39.384Z,22.17
2023-02-02T16:29:06.273Z,28.52
2023-02-02T16:31:35.326Z,27.55
2023-02-02T16:34:02.704Z,19.88
2023-02-02T16:36:29.844Z,25.08
2023-02-02T16:38:58.356Z,21.77
2023-02-02T16:41:33.754Z,31.70
2023-02-02T16:44:32.930Z,23.98
2023-02-02T16:47:00.159Z,26.77
2023-02-02T16:49:27.254Z,32.70
2023-02-02T16:52:15.346Z,25.92
2023-02-02T16:54:45.866Z,26.90
2023-02-02T16:57:22.669Z,28.13
2023-02-02T16:59:51.713Z,27.52
2023-02-02T17:02:39.534Z,30.38
2023-02-02T17:05:23.166Z,27.30
2023-02-02T17:07:54.997Z,23.60
2023-02-02T17:10:23.951Z,28.20
2023-02-02T17:12:52.970Z,32.65
2023-02-02T17:15:34.358Z,28.35
2023-02-02T17:18:02.230Z,23.35
2023-02-02T17:20:29.398Z,28.02
2023-02-02T17:23:07.974Z,28.73
2023-02-02T17:25:41.412Z,24.55
2023-02-02T17:28:13.041Z,30.55
2023-02-02T17:30:41.527Z,30.05
2023-02-02T17:33:14.890Z,29.58
2023-02-02T17:35:53.873Z,26.13
2023-02-02T17:38:22.884Z,28.95
2023-02-02T17:40:50.518Z,28.80
2023-02-02T17:43:17.201Z,33.75
2023-02-02T17:45:43.965Z,25.67
2023-02-02T17:48:12.594Z,24.27
2023-02-02T17:50:40.094Z,25.70
2023-02-02T17:53:08.999Z,31.23
2023-02-02T17:55:41.885Z,27.73
2023-02-02T17:58:10.443Z,30.90
2023-02-02T18:00:39.125Z,24.98
2023-02-02T18:03:14.580Z,29.73
2023-02-02T18:05:43.449Z,35.65
2023-02-02T18:08:12.351Z,27.67
2023-02-02T18:10:40.009Z,33.15
2023-02-02T18:13:07.024Z,31.80
2023-02-02T18:15:35.331Z,30.30
2023-02-02T18:18:02.552Z,26.00
2023-02-02T18:20:29.518Z,26.75
2023-02-02T18:22:56.571Z,27.33
2023-02-02T18:25:26.145Z,31.52
2023-02-02T18:27:54.839Z,24.45
2023-02-02T18:30:24.042Z,22.63
2023-02-02T18:32:51.142Z,23.65
2023-02-02T18:35:17.761Z,22.60
2023-02-02T18:37:45.282Z,26.25
2023-02-02T18:40:12.645Z,21.90
2023-02-02T18:42:39.359Z,21.08
2023-02-02T18:45:06.729Z,21.23
2023-02-02T18:47:33.463Z,15.68
2023-02-02T18:50:00.170Z,19.00
2023-02-02T18:52:26.792Z,22.13
2023-02-02T18:54:53.565Z,14.27
2023-02-02T18:57:20.886Z,15.38
2023-02-02T18:59:47.688Z,22.17
2023-02-02T19:02:16.778Z,15.27
2023-02-02T19:05:03.871Z,16.27
2023-02-02T19:07:52.100Z,16.25
2023-02-02T19:10:19.276Z,14.95
2023-02-02T19:13:15.982Z,15.55
2023-02-02T19:15:42.722Z,17.27
2023-02-02T19:18:19.293Z,12.55
2023-02-02T19:20:49.155Z,12.55
2023-02-02T19:23:18.172Z,14.57
2023-02-02T19:25:51.551Z,16.80
2023-02-02T19:28:26.231Z,17.80
2023-02-02T19:30:56.649Z,19.13
2023-02-02T19:33:41.947Z,17.55
2023-02-02T19:36:20.501Z,19.92
2023-02-02T19:38:49.071Z,21.92
2023-02-02T19:41:21.662Z,20.67
2023-02-02T19:43:50.275Z,22.65
2023-02-02T19:46:23.763Z,24.35
2023-02-02T19:48:53.918Z,22.48
2023-02-02T19:51:48.451Z,25.98
2023-02-02T19:54:24.931Z,29.30
2023-02-02T19:56:54.209Z,28.70
2023-02-02T19:59:21.031Z,29.42
2023-02-02T20:01:50.683Z,32.25
2023-02-02T20:04:19.594Z,35.50
2023-02-02T20:06:58.733Z,34.63
2023-02-02T20:09:30.065Z,29.63
2023-02-02T20:11:57.357Z,35.97
2023-02-02T20:14:32.202Z,34.90
2023-02-02T20:17:12.371Z,41.83
2023-02-02T20:19:41.247Z,33.65
2023-02-02T20:22:28.449Z,32.08
2023-02-02T20:25:01.329Z,38.67
2023-02-02T20:27:29.555Z,36.88
2023-02-02T20:30:01.484Z,43.17
2023-02-02T20:32:40.224Z,35.65
2023-02-02T20:35:24.471Z,36.65
2023-02-02T20:37:51.344Z,30.35
2023-02-02T20:40:20.968Z,43.90
2023-02-02T20:42:48.423Z,38.13
2023-02-02T20:45:18.991Z,39.88
2023-02-02T20:47:45.914Z,44.97
2023-02-02T20:50:14.700Z,35.05
2023-02-02T20:52:41.829Z,37.42
2023-02-02T20:55:09.240Z,37.35
2023-02-02T20:57:38.334Z,36.95
2023-02-02T21:00:12.860Z,33.80
2023-02-02T21:02:39.690Z,19.33
2023-02-02T21:05:06.743Z,34.72
2023-02-02T21:07:33.504Z,34.47
2023-02-02T21:10:00.237Z,31.70
2023-02-02T21:12:26.959Z,36.65
2023-02-02T21:14:53.975Z,39.10
2023-02-02T21:17:20.941Z,29.83
2023-02-02T21:19:47.845Z,35.78
2023-02-02T21:22:14.727Z,38.45
2023-02-02T21:24:42.517Z,41.65
2023-02-02T21:27:09.518Z,38.47
2023-02-02T21:29:36.231Z,41.47
2023-02-02T21:32:03.563Z,51.78
2023-02-02T21:34:31.030Z,43.60
2023-02-02T21:36:58.455Z,54.05
2023-02-02T21:39:28.205Z,48.33
2023-02-02T21:42:16.808Z,27.88
2023-02-02T21:44:54.679Z,41.92
2023-02-02T21:47:30.343Z,44.17
2023-02-02T21:50:04.872Z,45.97
2023-02-02T21:52:33.815Z,45.13
2023-02-02T21:55:00.546Z,41.08
2023-02-02T21:57:37.368Z,34.78
2023-02-02T22:00:21.366Z,51.15
2023-02-02T22:02:50.740Z,30.92
2023-02-02T22:05:20.830Z,37.13
2023-02-02T22:07:50.141Z,36.67
2023-02-02T22:10:45.142Z,39.13
2023-02-02T22:13:23.377Z,28.52
2023-02-02T22:15:51.370Z,19.98
2023-02-02T22:18:22.956Z,38.30
2023-02-02T22:20:51.404Z,37.80
2023-02-02T22:23:23.747Z,40.80
2023-02-02T22:25:55.224Z,36.88
2023-02-02T22:28:28.494Z,45.58
2023-02-02T22:30:56.208Z,39.42
2023-02-02T22:33:23.579Z,39.97
2023-02-02T22:35:50.755Z,41.72
2023-02-02T22:38:19.744Z,40.78
2023-02-02T22:40:47.235Z,32.63
2023-02-02T22:43:16.424Z,33.40
2023-02-02T22:45:43.792Z,35.83
2023-02-02T22:48:11.464Z,37.05
2023-02-02T22:50:38.228Z,32.10
2023-02-02T22:53:05.463Z,33.65
2023-02-02T22:55:32.302Z,37.85
2023-02-02T22:57:58.968Z,31.90
2023-02-02T23:00:30.352Z,37.28
2023-02-02T23:02:57.127Z,34.88
2023-02-02T23:05:24.879Z,32.78
2023-02-02T23:07:51.656Z,44.15
2023-02-02T23:10:21.361Z,25.50
2023-02-02T23:12:48.137Z,37.40
2023-02-02T23:15:18.108Z,37.45
2023-02-02T23:17:45.646Z,37.15
2023-02-02T23:20:13.278Z,36.03
2023-02-02T23:22:40.083Z,41.28
2023-02-02T23:25:07.206Z,36.67
2023-02-02T23:27:34.053Z,34.95
2023-02-02T23:30:00.678Z,43.53
2023-02-02T23:32:27.375Z,33.17
2023-02-02T23:34:54.065Z,40.13
2023-02-02T23:37:23.326Z,36.85
2023-02-02T23:39:50.029Z,33.92
2023-02-02T23:42:16.665Z,43.88
2023-02-02T23:44:43.254Z,38.13
2023-02-02T23:47:10.500Z,35.50
2023-02-02T23:49:37.211Z,31.55
2023-02-02T23:52:04.038Z,32.97
2023-02-02T23:54:31.400Z,33.30
2023-02-02T23:56:58.115Z,38.95
2023-02-02T23:59:25.109Z,33.75
